createdAt,value
2023-03-02T00:02:47.683Z,7.93
2023-03-02T00:06:59.575Z,8.07
2023-03-02T00:11:08.207Z,6.50
2023-03-02T00:15:16.828Z,7.63
2023-03-02T00:19:25.377Z,8.80
2023-03-02T00:23:54.608Z,5.70
2023-03-02T00:28:03.332Z,5.17
2023-03-02T00:32:31.355Z,11.30
2023-03-02T00:36:40.482Z,5.30
2023-03-02T00:40:52.124Z,8.00
2023-03-02T00:45:01.669Z,6.67
2023-03-02T00:49:10.286Z,9.83
2023-03-02T00:53:19.031Z,11.87
2023-03-02T00:57:27.658Z,7.33
2023-03-02T01:01:37.425Z,5.97
2023-03-02T01:05:46.089Z,6.10
2023-03-02T01:09:55.002Z,8.57
2023-03-02T01:14:03.717Z,7.97
2023-03-02T01:18:13.165Z,10.47
2023-03-02T01:22:22.539Z,6.47
2023-03-02T01:26:31.409Z,6.07
2023-03-02T01:30:40.087Z,7.20
2023-03-02T01:34:48.634Z,5.47
2023-03-02T01:38:57.204Z,7.17
2023-03-02T01:43:08.929Z,8.90
2023-03-02T01:47:26.567Z,7.67
2023-03-02T01:51:41.103Z,7.50
2023-03-02T01:55:50.034Z,7.43
2023-03-02T02:00:01.699Z,8.90
2023-03-02T02:04:11.265Z,6.60
2023-03-02T02:08:20.054Z,9.00
2023-03-02T02:12:48.039Z,6.40
2023-03-02T02:16:56.744Z,7.30
2023-03-02T02:21:06.454Z,7.73
2023-03-02T02:25:20.902Z,7.03
2023-03-02T02:29:33.048Z,5.80
2023-03-02T02:33:45.291Z,9.90
2023-03-02T02:37:56.807Z,6.93
2023-03-02T02:42:07.934Z,5.47
2023-03-02T02:46:17.211Z,8.80
2023-03-02T02:50:31.863Z,11.63
2023-03-02T02:54:40.641Z,8.13
2023-03-02T02:58:52.232Z,7.43
2023-03-02T03:03:03.827Z,8.87
2023-03-02T03:07:18.295Z,7.73
2023-03-02T03:11:32.065Z,7.40
2023-03-02T03:15:40.695Z,7.10
2023-03-02T03:19:49.333Z,7.33
2023-03-02T03:23:57.886Z,11.50
2023-03-02T03:28:06.497Z,8.10
2023-03-02T03:32:15.435Z,9.20
2023-03-02T03:36:24.643Z,9.47
2023-03-02T03:40:35.215Z,9.53
2023-03-02T03:44:43.845Z,9.03
2023-03-02T03:48:52.455Z,8.90
2023-03-02T03:53:03.417Z,11.23
2023-03-02T03:57:12.244Z,6.70
2023-03-02T04:01:22.984Z,5.33
2023-03-02T04:05:31.868Z,5.70
2023-03-02T04:09:41.287Z,5.27
2023-03-02T04:13:50.071Z,7.30
2023-03-02T04:17:58.586Z,6.00
2023-03-02T04:22:07.223Z,5.50
2023-03-02T04:26:16.256Z,9.43
2023-03-02T04:30:27.655Z,9.40
2023-03-02T04:34:36.591Z,6.70
2023-03-02T04:38:45.326Z,8.47
2023-03-02T04:42:53.958Z,6.70
2023-03-02T04:47:02.468Z,5.43
2023-03-02T04:51:21.790Z,7.67
2023-03-02T04:55:30.411Z,6.63
2023-03-02T04:59:39.171Z,6.37
2023-03-02T05:03:48.153Z,7.90
2023-03-02T05:07:58.445Z,5.00
2023-03-02T05:12:07.208Z,5.07
2023-03-02T05:16:15.976Z,4.77
2023-03-02T05:20:44.209Z,5.57
2023-03-02T05:24:52.809Z,5.30
2023-03-02T05:29:01.449Z,5.10
2023-03-02T05:33:10.310Z,5.93
2023-03-02T05:37:39.997Z,7.40
2023-03-02T05:41:48.619Z,7.57
2023-03-02T05:45:58.989Z,5.37
2023-03-02T05:50:08.506Z,6.80
2023-03-02T05:54:17.166Z,7.97
2023-03-02T05:58:25.797Z,6.20
2023-03-02T06:02:34.421Z,7.93
2023-03-02T06:06:43.051Z,9.83
2023-03-02T06:10:53.150Z,7.20
2023-03-02T06:15:01.739Z,6.30
2023-03-02T06:19:10.368Z,6.60
2023-03-02T06:23:19.003Z,22.83
2023-03-02T06:27:27.514Z,6.47
2023-03-02T06:31:36.271Z,8.87
2023-03-02T06:35:44.844Z,9.30
2023-03-02T06:39:53.457Z,11.90
2023-03-02T06:44:02.379Z,8.90
2023-03-02T06:48:10.983Z,8.37
2023-03-02T06:52:19.504Z,8.00
2023-03-02T06:56:28.337Z,8.03
2023-03-02T07:00:36.891Z,10.23
2023-03-02T07:04:45.479Z,7.47
2023-03-02T07:08:54.017Z,5.70
2023-03-02T07:13:02.756Z,4.97
2023-03-02T07:17:12.455Z,17.97
2023-03-02T07:21:21.126Z,5.30
2023-03-02T07:25:29.757Z,7.83
2023-03-02T07:29:38.280Z,4.87
2023-03-02T07:33:46.803Z,6.93
2023-03-02T07:37:55.644Z,5.73
2023-03-02T07:42:06.671Z,5.60
2023-03-02T07:46:19.691Z,11.13
2023-03-02T07:50:28.374Z,7.10
2023-03-02T07:54:37.022Z,6.00
2023-03-02T07:58:45.543Z,10.83
2023-03-02T08:02:54.121Z,6.90
2023-03-02T08:07:02.702Z,11.57
2023-03-02T08:11:16.913Z,8.20
2023-03-02T08:15:25.477Z,7.97
2023-03-02T08:19:34.107Z,5.47
2023-03-02T08:23:43.266Z,8.07
2023-03-02T08:27:51.889Z,9.97
2023-03-02T08:32:01.162Z,11.47
2023-03-02T08:36:29.153Z,7.03
2023-03-02T08:40:37.747Z,9.93
2023-03-02T08:44:46.341Z,7.40
2023-03-02T08:48:54.878Z,10.93
2023-03-02T08:53:03.624Z,9.93
2023-03-02T08:57:13.326Z,9.87
2023-03-02T09:01:30.920Z,24.63
2023-03-02T09:05:39.858Z,13.97
2023-03-02T09:09:48.484Z,9.90
2023-03-02T09:13:57.442Z,15.63
2023-03-02T09:18:06.247Z,13.13
2023-03-02T09:22:14.808Z,14.50
2023-03-02T09:26:23.724Z,8.00
2023-03-02T09:30:52.719Z,8.20
2023-03-02T09:35:01.661Z,10.17
2023-03-02T09:39:11.857Z,7.73
2023-03-02T09:43:45.054Z,14.83
2023-03-02T09:48:08.446Z,18.50
2023-03-02T09:52:38.436Z,9.77
2023-03-02T09:56:50.341Z,9.90
2023-03-02T10:01:03.636Z,6.90
2023-03-02T10:05:20.642Z,9.73
2023-03-02T10:09:29.370Z,15.17
2023-03-02T10:13:47.455Z,11.23
2023-03-02T10:18:04.606Z,7.23
2023-03-02T10:22:37.709Z,14.83
2023-03-02T10:26:48.938Z,8.40
2023-03-02T10:31:21.135Z,10.37
2023-03-02T10:35:50.842Z,13.57
2023-03-02T10:39:59.468Z,6.70
2023-03-02T10:44:16.634Z,9.53
2023-03-02T10:48:25.196Z,11.00
2023-03-02T10:52:35.066Z,7.93
2023-03-02T10:56:45.849Z,12.27
2023-03-02T11:01:06.157Z,10.30
2023-03-02T11:05:23.798Z,11.40
2023-03-02T11:09:32.498Z,8.83
2023-03-02T11:13:41.142Z,14.80
2023-03-02T11:18:02.151Z,10.93
2023-03-02T11:22:22.653Z,8.80
2023-03-02T11:26:55.288Z,10.40
2023-03-02T11:31:07.102Z,6.40
2023-03-02T11:35:24.659Z,9.60
2023-03-02T11:39:55.941Z,7.83
2023-03-02T11:44:10.570Z,8.63
2023-03-02T11:48:40.033Z,9.77
2023-03-02T11:52:54.670Z,8.57
2023-03-02T11:57:03.912Z,9.47
2023-03-02T12:01:15.509Z,7.37
2023-03-02T12:05:27.202Z,11.13
2023-03-02T12:09:38.328Z,8.20
2023-03-02T12:13:52.698Z,7.30
2023-03-02T12:18:01.343Z,14.87
2023-03-02T12:22:19.986Z,9.33
2023-03-02T12:26:47.818Z,8.43
2023-03-02T12:31:08.641Z,12.13
2023-03-02T12:35:22.566Z,9.00
2023-03-02T12:39:46.215Z,7.97
2023-03-02T12:44:03.702Z,6.00
2023-03-02T12:48:30.821Z,9.67
2023-03-02T12:52:39.469Z,8.40
2023-03-02T12:56:48.994Z,11.67
2023-03-02T13:01:03.165Z,5.57
2023-03-02T13:05:14.954Z,7.10
2023-03-02T13:09:24.572Z,6.63
2023-03-02T13:13:37.069Z,9.93
2023-03-02T13:17:47.840Z,8.67
2023-03-02T13:21:56.766Z,7.53
2023-03-02T13:26:06.448Z,6.83
2023-03-02T13:30:27.754Z,7.67
2023-03-02T13:34:37.011Z,9.20
2023-03-02T13:38:48.618Z,7.10
2023-03-02T13:42:57.663Z,5.87
2023-03-02T13:47:07.742Z,7.13
2023-03-02T13:51:21.761Z,6.30
2023-03-02T13:55:30.474Z,8.57
2023-03-02T13:59:39.040Z,10.53
2023-03-02T14:03:47.617Z,5.87
2023-03-02T14:07:56.221Z,7.60
2023-03-02T14:12:06.816Z,7.20
2023-03-02T14:16:17.237Z,9.13
2023-03-02T14:20:25.905Z,9.60
2023-03-02T14:24:34.630Z,5.93
2023-03-02T14:28:43.259Z,5.57
2023-03-02T14:32:51.850Z,8.83
2023-03-02T14:37:02.904Z,8.57
2023-03-02T14:41:34.424Z,5.97
2023-03-02T14:45:41.112Z,7.50
2023-03-02T14:49:49.737Z,7.47
2023-03-02T14:54:01.950Z,6.47
2023-03-02T14:58:16.949Z,5.80
2023-03-02T15:02:26.951Z,8.33
2023-03-02T15:06:55.393Z,7.30
2023-03-02T15:11:04.042Z,7.40
2023-03-02T15:15:13.526Z,7.00
2023-03-02T15:19:22.198Z,11.37
2023-03-02T15:23:30.830Z,8.00
2023-03-02T15:27:39.461Z,9.67
2023-03-02T15:31:48.213Z,6.00
2023-03-02T15:35:56.769Z,6.27
2023-03-02T15:40:05.638Z,6.13
2023-03-02T15:44:18.906Z,7.27
2023-03-02T15:48:29.312Z,8.43
2023-03-02T15:52:37.873Z,8.50
2023-03-02T15:56:50.022Z,8.33
2023-03-02T16:00:58.352Z,10.80
2023-03-02T16:05:07.757Z,7.83
2023-03-02T16:09:16.389Z,12.83
2023-03-02T16:13:25.018Z,11.10
2023-03-02T16:17:33.535Z,13.87
2023-03-02T16:21:42.540Z,11.67
2023-03-02T16:25:51.417Z,13.67
2023-03-02T16:29:59.996Z,13.53
2023-03-02T16:34:10.612Z,14.30
2023-03-02T16:38:21.113Z,11.37
2023-03-02T16:42:30.541Z,11.17
2023-03-02T16:46:43.659Z,12.30
2023-03-02T16:50:59.183Z,10.80
2023-03-02T16:55:10.955Z,8.63
2023-03-02T16:59:19.595Z,12.23
2023-03-02T17:03:28.224Z,16.60
2023-03-02T17:07:36.892Z,12.85
2023-03-02T17:11:45.443Z,10.80
2023-03-02T17:15:54.433Z,18.00
2023-03-02T17:20:03.101Z,13.83
2023-03-02T17:24:11.705Z,13.33
2023-03-02T17:28:39.868Z,8.77
2023-03-02T17:32:48.800Z,11.63
2023-03-02T17:36:57.937Z,10.43
2023-03-02T17:41:10.699Z,15.00
2023-03-02T17:45:25.156Z,17.13
2023-03-02T17:49:53.110Z,13.20
2023-03-02T17:54:01.749Z,15.77
2023-03-02T17:58:10.468Z,13.60
2023-03-02T18:02:19.677Z,14.47
2023-03-02T18:06:29.259Z,14.07
2023-03-02T18:10:37.790Z,15.57
2023-03-02T18:14:46.649Z,13.00
2023-03-02T18:18:56.000Z,17.50
2023-03-02T18:23:04.721Z,14.40
2023-03-02T18:27:13.332Z,21.20
2023-03-02T18:31:22.517Z,12.40
2023-03-02T18:35:31.092Z,12.13
2023-03-02T18:39:39.697Z,12.93
2023-03-02T18:43:49.774Z,12.20
2023-03-02T18:47:59.258Z,10.20
2023-03-02T18:52:09.685Z,9.27
2023-03-02T18:56:18.904Z,13.20
2023-03-02T19:00:48.287Z,9.87
2023-03-02T19:04:56.829Z,8.10
2023-03-02T19:09:05.399Z,14.30
2023-03-02T19:13:15.540Z,12.77
2023-03-02T19:17:24.935Z,12.20
2023-03-02T19:21:33.456Z,15.80
2023-03-02T19:25:42.597Z,10.67
2023-03-02T19:29:51.149Z,10.80
2023-03-02T19:34:00.381Z,13.17
2023-03-02T19:38:10.225Z,14.37
2023-03-02T19:42:18.850Z,16.10
2023-03-02T19:46:27.482Z,13.83
2023-03-02T19:50:36.210Z,16.30
2023-03-02T19:54:44.747Z,13.53
2023-03-02T19:58:54.249Z,16.20
2023-03-02T20:03:03.192Z,17.47
2023-03-02T20:07:12.054Z,15.03
2023-03-02T20:11:21.296Z,16.13
2023-03-02T20:15:30.924Z,16.50
2023-03-02T20:19:39.478Z,16.20
2023-03-02T20:23:49.081Z,15.90
2023-03-02T20:27:58.420Z,18.70
2023-03-02T20:32:09.247Z,18.50
2023-03-02T20:36:20.566Z,15.07
2023-03-02T20:40:31.330Z,15.90
2023-03-02T20:44:40.073Z,13.17
2023-03-02T20:48:49.600Z,18.53
2023-03-02T20:52:58.241Z,15.37
2023-03-02T20:57:08.685Z,18.43
2023-03-02T21:01:18.975Z,19.13
2023-03-02T21:05:29.701Z,19.33
2023-03-02T21:09:38.377Z,19.63
2023-03-02T21:13:48.711Z,20.82
2023-03-02T21:17:59.529Z,22.50
2023-03-02T21:22:08.126Z,21.33
2023-03-02T21:26:18.952Z,21.30
2023-03-02T21:30:47.077Z,26.07
2023-03-02T21:34:55.754Z,22.00
2023-03-02T21:39:06.580Z,17.60
2023-03-02T21:43:16.492Z,22.30
2023-03-02T21:47:25.119Z,27.83
2023-03-02T21:51:33.975Z,19.90
2023-03-02T21:55:44.187Z,21.97
2023-03-02T21:59:54.635Z,24.20
2023-03-02T22:04:03.227Z,19.60
2023-03-02T22:08:14.852Z,22.90
2023-03-02T22:12:24.139Z,24.33
2023-03-02T22:16:38.590Z,25.70
2023-03-02T22:20:50.128Z,23.70
2023-03-02T22:25:00.692Z,26.00
2023-03-02T22:29:18.257Z,19.70
2023-03-02T22:33:29.679Z,31.93
2023-03-02T22:37:38.229Z,28.07
2023-03-02T22:41:46.806Z,28.40
2023-03-02T22:45:57.150Z,33.87
2023-03-02T22:50:27.355Z,39.13
2023-03-02T22:54:55.274Z,36.00
2023-03-02T22:59:22.448Z,41.90
2023-03-02T23:03:42.784Z,47.07
2023-03-02T23:07:52.319Z,55.83
2023-03-02T23:12:15.733Z,39.97
2023-03-02T23:16:30.498Z,45.13
2023-03-02T23:20:39.479Z,42.10
2023-03-02T23:24:48.322Z,41.43
2023-03-02T23:28:57.125Z,45.70
2023-03-02T23:33:06.115Z,43.03
2023-03-02T23:37:14.809Z,36.50
2023-03-02T23:41:42.749Z,34.03
2023-03-02T23:45:51.666Z,30.80
2023-03-02T23:50:00.469Z,26.67
2023-03-02T23:54:09.003Z,28.67
2023-03-02T23:58:18.200Z,35.90
